Time;durP1;ratioP1;P1;durP2;ratioP2;P2;SDS_P1;SDS_P2;PMS_P1;PMS_P2;Temp;Humidity;BMP_temperature;BMP_pressure;BME280_temperature;BME280_humidity;BME280_pressure;Samples;Min_cycle;Max_cycle;Signal;HPM_P1;HPM_P2
2022/07/04 00:00:47;;;;;;;4.60;2.20;;;;;;;;;;6197917;28;20217;-67
2022/07/04 00:04:07;;;;;;;2.30;1.77;;;;;;;;;;6205598;28;20225;-69
2022/07/04 00:07:28;;;;;;;3.15;2.05;;;;;;;;;;6202530;28;20236;-69
2022/07/04 00:10:49;;;;;;;8.30;3.17;;;;;;;;;;6192296;28;20241;-69
2022/07/04 00:14:11;;;;;;;5.28;2.33;;;;;;;;;;6197676;28;20233;-69
2022/07/04 00:17:32;;;;;;;4.25;1.95;;;;;;;;;;6197423;28;20618;-67
2022/07/04 00:20:53;;;;;;;4.38;2.33;;;;;;;;;;6198367;28;20233;-69
2022/07/04 00:24:14;;;;;;;5.05;2.67;;;;;;;;;;6195768;28;20269;-67
2022/07/04 00:27:34;;;;;;;5.50;2.20;;;;;;;;;;6192678;28;20230;-68
2022/07/04 00:30:56;;;;;;;2.45;2.25;;;;;;;;;;6192196;28;20225;-68
2022/07/04 00:34:17;;;;;;;5.50;2.45;;;;;;;;;;6197170;28;20226;-67
2022/07/04 00:37:37;;;;;;;7.60;2.60;;;;;;;;;;6196179;28;20339;-68
2022/07/04 00:40:58;;;;;;;4.32;2.55;;;;;;;;;;6194892;28;20229;-69
2022/07/04 00:44:20;;;;;;;4.32;3.33;;;;;;;;;;6195582;28;20615;-68
2022/07/04 00:47:41;;;;;;;4.25;3.22;;;;;;;;;;6197961;28;20618;-68
2022/07/04 00:51:02;;;;;;;4.72;3.35;;;;;;;;;;6197176;28;20228;-68
2022/07/04 00:54:26;;;;;;;8.10;4.18;;;;;;;;;;6196310;28;20363;-68
2022/07/04 00:57:46;;;;;;;6.10;4.15;;;;;;;;;;6194433;28;20630;-69
2022/07/04 01:01:07;;;;;;;6.97;4.43;;;;;;;;;;6196657;28;20320;-69
2022/07/04 01:04:28;;;;;;;5.68;4.03;;;;;;;;;;6200771;28;20719;-68
2022/07/04 01:07:50;;;;;;;9.73;4.53;;;;;;;;;;6192679;28;20272;-68
2022/07/04 01:11:11;;;;;;;7.47;3.90;;;;;;;;;;6198797;28;20257;-68
2022/07/04 01:14:31;;;;;;;6.38;3.67;;;;;;;;;;6195262;28;20319;-68
2022/07/04 01:17:51;;;;;;;4.80;3.80;;;;;;;;;;6191396;28;20340;-68
2022/07/04 01:21:13;;;;;;;6.45;3.30;;;;;;;;;;6196143;28;20682;-68
2022/07/04 01:24:34;;;;;;;4.80;4.18;;;;;;;;;;6196128;28;20228;-68
2022/07/04 01:27:54;;;;;;;4.97;4.47;;;;;;;;;;6192671;28;20228;-68
2022/07/04 01:31:15;;;;;;;5.32;4.82;;;;;;;;;;6195227;28;20225;-68
2022/07/04 01:34:36;;;;;;;7.15;4.95;;;;;;;;;;6198784;28;20687;-68
2022/07/04 01:37:58;;;;;;;6.97;5.85;;;;;;;;;;6195862;28;20237;-68
2022/07/04 01:41:19;;;;;;;8.10;5.80;;;;;;;;;;6200921;28;20252;-67
2022/07/04 01:44:39;;;;;;;7.05;6.38;;;;;;;;;;6197653;28;20229;-68
2022/07/04 01:48:00;;;;;;;7.97;5.80;;;;;;;;;;6198176;28;20757;-69
2022/07/04 01:51:29;;;;;;;6.53;5.93;;;;;;;;;;6200388;28;20237;-68
2022/07/04 01:54:51;;;;;;;7.63;6.03;;;;;;;;;;6197863;28;20236;-69
2022/07/04 01:58:12;;;;;;;6.35;5.85;;;;;;;;;;6199523;28;20257;-69
2022/07/04 02:01:32;;;;;;;8.32;7.53;;;;;;;;;;6201342;28;20217;-68
2022/07/04 02:04:53;;;;;;;9.52;6.13;;;;;;;;;;6205803;28;20296;-68
2022/07/04 02:08:13;;;;;;;9.75;7.00;;;;;;;;;;6200159;28;21002;-68
2022/07/04 02:15:10;;;;;;;7.35;6.65;;;;;;;;;;6198312;28;20228;-68
2022/07/04 02:18:30;;;;;;;8.73;7.43;;;;;;;;;;6201834;28;20511;-68
2022/07/04 02:21:51;;;;;;;6.53;5.90;;;;;;;;;;6203046;28;20332;-68
2022/07/04 02:25:12;;;;;;;6.65;6.05;;;;;;;;;;6200509;28;20230;-68
2022/07/04 02:28:34;;;;;;;7.80;7.10;;;;;;;;;;6197137;28;20230;-69
2022/07/04 02:31:55;;;;;;;7.03;6.43;;;;;;;;;;6198570;28;20229;-68
2022/07/04 02:35:15;;;;;;;8.60;7.68;;;;;;;;;;6200382;28;20226;-68
2022/07/04 02:38:36;;;;;;;6.82;6.22;;;;;;;;;;6198893;28;20230;-69
2022/07/04 02:41:56;;;;;;;7.28;6.57;;;;;;;;;;6175276;28;20236;-69
2022/07/04 02:45:18;;;;;;;5.85;5.45;;;;;;;;;;6194592;28;20245;-68
2022/07/04 02:48:39;;;;;;;7.30;6.70;;;;;;;;;;6187130;28;20230;-68
2022/07/04 02:52:00;;;;;;;7.28;5.22;;;;;;;;;;6196616;28;20783;-68
2022/07/04 02:55:20;;;;;;;9.43;6.18;;;;;;;;;;6202690;28;20493;-70
2022/07/04 02:58:41;;;;;;;7.03;5.03;;;;;;;;;;6197048;28;20260;-69
2022/07/04 03:02:03;;;;;;;5.82;5.20;;;;;;;;;;6195542;28;20225;-68
2022/07/04 03:05:23;;;;;;;5.22;4.40;;;;;;;;;;6199383;28;20244;-68
2022/07/04 03:08:44;;;;;;;5.55;5.00;;;;;;;;;;6195433;28;20232;-67
2022/07/04 03:12:05;;;;;;;7.43;4.13;;;;;;;;;;6193306;28;20257;-68
2022/07/04 03:15:26;;;;;;;5.72;5.22;;;;;;;;;;6198038;28;20234;-68
2022/07/04 03:18:48;;;;;;;6.63;5.28;;;;;;;;;;6196635;28;20331;-69
2022/07/04 03:22:08;;;;;;;5.20;4.70;;;;;;;;;;6189868;28;20316;-67
2022/07/04 03:25:29;;;;;;;8.52;7.55;;;;;;;;;;6204964;28;20320;-69
2022/07/04 03:28:50;;;;;;;6.72;6.03;;;;;;;;;;6198089;28;20316;-69
2022/07/04 03:32:10;;;;;;;5.97;5.40;;;;;;;;;;6199504;28;20308;-67
2022/07/04 03:35:32;;;;;;;6.05;5.45;;;;;;;;;;6201304;28;20230;-68
2022/07/04 03:38:52;;;;;;;7.80;5.70;;;;;;;;;;6196909;28;20237;-68
2022/07/04 03:42:13;;;;;;;10.85;6.63;;;;;;;;;;6197750;28;20674;-69
2022/07/04 03:45:33;;;;;;;8.82;7.88;;;;;;;;;;6194799;28;20228;-68
2022/07/04 03:48:55;;;;;;;8.73;8.02;;;;;;;;;;6200789;28;20801;-68
2022/07/04 03:52:17;;;;;;;9.13;8.30;;;;;;;;;;6197404;28;20585;-67
2022/07/04 03:55:38;;;;;;;9.45;8.68;;;;;;;;;;6193423;28;20627;-67
2022/07/04 03:58:59;;;;;;;12.23;11.05;;;;;;;;;;6197192;28;20241;-69
2022/07/04 04:02:20;;;;;;;9.90;9.00;;;;;;;;;;6193703;28;20253;-68
2022/07/04 04:05:40;;;;;;;9.65;8.88;;;;;;;;;;6205782;28;20229;-68
2022/07/04 04:09:02;;;;;;;7.88;7.10;;;;;;;;;;6201011;28;20221;-68
2022/07/04 04:12:22;;;;;;;7.63;6.88;;;;;;;;;;6193372;28;20747;-67
2022/07/04 04:15:43;;;;;;;8.05;7.30;;;;;;;;;;6192764;28;20238;-68
2022/07/04 04:19:04;;;;;;;9.38;8.63;;;;;;;;;;6200991;28;20607;-68
2022/07/04 04:22:24;;;;;;;7.15;6.53;;;;;;;;;;6193779;28;20221;-67
2022/07/04 04:25:46;;;;;;;8.82;6.22;;;;;;;;;;6193137;28;20236;-68
2022/07/04 04:29:06;;;;;;;8.02;7.00;;;;;;;;;;6193855;28;20229;-67
2022/07/04 04:32:27;;;;;;;6.55;5.90;;;;;;;;;;6168903;28;20320;-67
2022/07/04 04:35:47;;;;;;;7.47;6.57;;;;;;;;;;6171533;28;20226;-69
2022/07/04 04:39:08;;;;;;;5.95;5.40;;;;;;;;;;6195670;28;20233;-68
2022/07/04 04:42:30;;;;;;;6.97;5.55;;;;;;;;;;6178238;28;20229;-68
2022/07/04 04:45:50;;;;;;;8.98;6.65;;;;;;;;;;6197987;28;20265;-69
2022/07/04 04:49:11;;;;;;;7.40;6.65;;;;;;;;;;6198521;28;20489;-68
2022/07/04 04:52:32;;;;;;;6.75;6.07;;;;;;;;;;6191723;28;20232;-69
2022/07/04 04:55:52;;;;;;;5.65;5.15;;;;;;;;;;6192947;28;20233;-68
2022/07/04 04:59:14;;;;;;;6.20;5.65;;;;;;;;;;6194756;28;20631;-68
2022/07/04 05:02:34;;;;;;;6.00;5.43;;;;;;;;;;6187739;28;20556;-68
2022/07/04 05:05:55;;;;;;;7.78;5.55;;;;;;;;;;6169306;28;20706;-67
2022/07/04 05:09:16;;;;;;;7.47;6.78;;;;;;;;;;6193552;28;20239;-68
2022/07/04 05:12:36;;;;;;;5.22;4.18;;;;;;;;;;6193551;28;20667;-69
2022/07/04 05:15:58;;;;;;;6.07;5.57;;;;;;;;;;6187097;28;20236;-67
2022/07/04 05:19:19;;;;;;;6.88;5.65;;;;;;;;;;6194152;28;20621;-68
2022/07/04 05:22:39;;;;;;;5.07;4.13;;;;;;;;;;6190671;28;20249;-68
2022/07/04 05:26:00;;;;;;;5.13;4.57;;;;;;;;;;6195054;28;20232;-68
2022/07/04 05:29:20;;;;;;;4.57;4.18;;;;;;;;;;6195248;28;20257;-69
2022/07/04 05:32:42;;;;;;;7.55;4.00;;;;;;;;;;6192110;28;20233;-68
2022/07/04 05:36:03;;;;;;;4.53;4.10;;;;;;;;;;6188088;28;20232;-69
2022/07/04 05:39:24;;;;;;;4.55;3.47;;;;;;;;;;6187949;28;20233;-75
2022/07/04 05:42:44;;;;;;;4.68;4.15;;;;;;;;;;6187873;28;20226;-79
2022/07/04 05:46:05;;;;;;;4.47;3.67;;;;;;;;;;6198910;28;20607;-78
2022/07/04 05:49:27;;;;;;;5.18;3.05;;;;;;;;;;6199314;28;20632;-76
2022/07/04 05:52:47;;;;;;;4.82;3.13;;;;;;;;;;6196561;28;20233;-79
2022/07/04 05:56:08;;;;;;;2.95;2.63;;;;;;;;;;6196550;28;20682;-79
2022/07/04 05:59:29;;;;;;;6.63;3.10;;;;;;;;;;6200011;28;20233;-81
2022/07/04 06:02:50;;;;;;;2.72;2.42;;;;;;;;;;6196196;28;20321;-78
2022/07/04 06:06:13;;;;;;;6.60;3.17;;;;;;;;;;6195174;28;20539;-77
2022/07/04 06:09:34;;;;;;;4.25;2.70;;;;;;;;;;6185820;28;20258;-79
2022/07/04 06:12:54;;;;;;;5.47;2.33;;;;;;;;;;6197439;28;20228;-75
2022/07/04 06:16:14;;;;;;;3.03;2.42;;;;;;;;;;6194951;28;20237;-77
2022/07/04 06:19:35;;;;;;;4.60;2.10;;;;;;;;;;6198272;28;20634;-77
2022/07/04 06:22:57;;;;;;;3.75;3.10;;;;;;;;;;6200012;28;20613;-76
2022/07/04 06:26:18;;;;;;;3.80;2.03;;;;;;;;;;6199855;28;20501;-74
2022/07/04 06:29:38;;;;;;;4.68;2.38;;;;;;;;;;6202502;28;20290;-78
2022/07/04 06:33:00;;;;;;;3.45;1.65;;;;;;;;;;6204836;28;20320;-79
2022/07/04 06:36:19;;;;;;;3.25;1.58;;;;;;;;;;6205005;28;20230;-77
2022/07/04 06:39:41;;;;;;;4.50;1.70;;;;;;;;;;6203767;28;20562;-76
2022/07/04 06:43:03;;;;;;;4.78;1.50;;;;;;;;;;6196943;28;20237;-74
2022/07/04 06:46:23;;;;;;;4.13;1.90;;;;;;;;;;6195841;28;20257;-75
2022/07/04 06:49:44;;;;;;;3.08;1.55;;;;;;;;;;6202596;28;20229;-75
2022/07/04 06:53:06;;;;;;;3.97;1.90;;;;;;;;;;6195211;28;20230;-74
2022/07/04 06:56:28;;;;;;;3.20;1.60;;;;;;;;;;6198598;28;20229;-75
2022/07/04 06:59:49;;;;;;;4.28;2.00;;;;;;;;;;6187360;28;20635;-75
2022/07/04 07:03:09;;;;;;;3.17;1.70;;;;;;;;;;6197548;28;20272;-76
2022/07/04 07:06:30;;;;;;;6.30;2.75;;;;;;;;;;6201008;28;20234;-78
2022/07/04 07:09:51;;;;;;;3.83;1.92;;;;;;;;;;6204771;28;20631;-74
2022/07/04 07:13:14;;;;;;;3.58;1.98;;;;;;;;;;6201697;28;20230;-75
2022/07/04 07:16:34;;;;;;;5.55;3.80;;;;;;;;;;6194339;28;20243;-77
2022/07/04 07:19:55;;;;;;;1.85;1.70;;;;;;;;;;6204313;28;20885;-75
2022/07/04 07:23:16;;;;;;;1.40;1.08;;;;;;;;;;6193748;28;20564;-75
2022/07/04 07:26:37;;;;;;;4.30;1.40;;;;;;;;;;6193176;28;20225;-74
2022/07/04 07:29:59;;;;;;;2.53;1.63;;;;;;;;;;6193712;28;20237;-75
2022/07/04 07:33:20;;;;;;;1.33;1.23;;;;;;;;;;6195087;28;20304;-78
2022/07/04 07:36:40;;;;;;;2.40;1.17;;;;;;;;;;6195614;28;20233;-76
2022/07/04 07:40:02;;;;;;;4.78;1.73;;;;;;;;;;6186852;28;20615;-74
2022/07/04 07:43:23;;;;;;;3.05;1.85;;;;;;;;;;6188953;28;20606;-76
2022/07/04 07:46:44;;;;;;;1.77;0.93;;;;;;;;;;6193072;28;20233;-76
2022/07/04 07:50:06;;;;;;;1.92;1.02;;;;;;;;;;6194820;28;20332;-71
2022/07/04 07:53:27;;;;;;;1.77;1.45;;;;;;;;;;6198441;28;20498;-72
2022/07/04 07:56:47;;;;;;;3.92;1.77;;;;;;;;;;6192027;28;20233;-70
2022/07/04 08:00:08;;;;;;;1.20;1.08;;;;;;;;;;6171983;28;20229;-71
2022/07/04 08:07:14;;;;;;;2.83;1.02;;;;;;;;;;6185660;28;20233;-68
2022/07/04 08:10:34;;;;;;;2.92;0.80;;;;;;;;;;6196754;28;20484;-70
2022/07/04 08:13:55;;;;;;;3.97;1.85;;;;;;;;;;6194915;28;20241;-69
2022/07/04 08:17:16;;;;;;;2.45;1.63;;;;;;;;;;6191352;28;20233;-68
2022/07/04 08:20:38;;;;;;;2.28;0.98;;;;;;;;;;6189690;28;20229;-69
2022/07/04 08:23:59;;;;;;;0.93;0.80;;;;;;;;;;6196324;28;20237;-68
2022/07/04 08:27:20;;;;;;;2.60;1.08;;;;;;;;;;6196212;28;20233;-70
2022/07/04 08:30:41;;;;;;;4.53;1.30;;;;;;;;;;6196005;28;20249;-69
2022/07/04 08:34:01;;;;;;;2.60;1.20;;;;;;;;;;6191013;28;20256;-70
2022/07/04 08:37:24;;;;;;;1.80;1.08;;;;;;;;;;6197265;28;20220;-70
2022/07/04 08:40:44;;;;;;;3.53;1.00;;;;;;;;;;6193775;28;20236;-71
2022/07/04 08:44:06;;;;;;;1.90;1.60;;;;;;;;;;6189858;28;20225;-77
2022/07/04 08:47:28;;;;;;;2.30;1.33;;;;;;;;;;6194285;28;20237;-81
2022/07/04 08:50:51;;;;;;;1.58;1.10;;;;;;;;;;6203596;28;20233;-79
2022/07/04 09:01:27;;;;;;;1.48;0.90;;;;;;;;;;6207129;28;20611;-77
2022/07/04 09:04:49;;;;;;;2.42;1.13;;;;;;;;;;6203726;28;20226;-75
2022/07/04 09:08:10;;;;;;;1.75;1.10;;;;;;;;;;6201051;28;20221;-74
2022/07/04 09:11:32;;;;;;;0.82;0.70;;;;;;;;;;6196163;28;20686;-77
2022/07/04 09:14:52;;;;;;;3.40;1.10;;;;;;;;;;6200218;28;20232;-78
2022/07/04 09:18:20;;;;;;;3.28;1.00;;;;;;;;;;6195837;28;20643;-79
2022/07/04 09:21:45;;;;;;;2.72;1.38;;;;;;;;;;6196025;28;20237;-82
2022/07/04 09:25:06;;;;;;;3.50;0.98;;;;;;;;;;6197583;28;20225;-78
2022/07/04 09:28:29;;;;;;;2.78;0.98;;;;;;;;;;6199831;28;20233;-80
2022/07/04 09:31:49;;;;;;;0.80;0.80;;;;;;;;;;6189437;28;20387;-75
2022/07/04 09:35:11;;;;;;;1.17;0.80;;;;;;;;;;6189896;28;20257;-80
2022/07/04 09:38:32;;;;;;;3.50;1.08;;;;;;;;;;6198538;28;20248;-79
2022/07/04 09:41:54;;;;;;;1.30;1.15;;;;;;;;;;6189495;28;20776;-78
2022/07/04 09:45:17;;;;;;;1.15;1.05;;;;;;;;;;6199785;28;20221;-76
2022/07/04 09:48:50;;;;;;;1.48;1.10;;;;;;;;;;6187004;28;20238;-77
2022/07/04 09:52:11;;;;;;;0.70;0.70;;;;;;;;;;6192297;28;20312;-74
2022/07/04 09:55:32;;;;;;;3.25;1.05;;;;;;;;;;6199700;28;20234;-73
2022/07/04 09:58:57;;;;;;;3.70;1.20;;;;;;;;;;6187455;28;20677;-72
2022/07/04 10:02:19;;;;;;;2.42;0.85;;;;;;;;;;6197437;28;20560;-74
2022/07/04 10:05:40;;;;;;;2.72;0.85;;;;;;;;;;6203310;28;20222;-77
2022/07/04 10:09:08;;;;;;;1.75;1.20;;;;;;;;;;6209615;28;20232;-83
2022/07/04 10:12:29;;;;;;;2.50;1.08;;;;;;;;;;6204464;28;20555;-77
2022/07/04 10:15:49;;;;;;;1.60;0.70;;;;;;;;;;6192351;28;20221;-78
2022/07/04 10:19:12;;;;;;;2.38;1.08;;;;;;;;;;6183733;28;20237;-78
2022/07/04 10:22:33;;;;;;;0.82;0.75;;;;;;;;;;6191360;28;20276;-78
2022/07/04 10:25:54;;;;;;;0.90;0.90;;;;;;;;;;6198668;28;20229;-81
2022/07/04 10:29:16;;;;;;;1.00;0.80;;;;;;;;;;6197589;28;20229;-78
2022/07/04 10:32:37;;;;;;;2.65;0.93;;;;;;;;;;6197779;28;20229;-76
2022/07/04 10:36:01;;;;;;;1.92;0.80;;;;;;;;;;6196625;28;20241;-78
2022/07/04 10:39:23;;;;;;;2.30;1.23;;;;;;;;;;6197299;28;20619;-76
2022/07/04 10:42:44;;;;;;;3.88;1.30;;;;;;;;;;6202885;28;20229;-79
2022/07/04 10:46:23;;;;;;;2.33;0.85;;;;;;;;;;6193883;28;20229;-78
2022/07/04 10:49:43;;;;;;;0.95;0.80;;;;;;;;;;6199040;28;20525;-79
2022/07/04 10:53:11;;;;;;;1.10;0.70;;;;;;;;;;6194518;28;20230;-81
2022/07/04 10:56:36;;;;;;;4.25;1.20;;;;;;;;;;6182449;28;20241;-80
2022/07/04 11:00:05;;;;;;;0.80;0.70;;;;;;;;;;6195853;28;20233;-75
2022/07/04 11:03:26;;;;;;;2.47;0.82;;;;;;;;;;6196856;28;20236;-80
2022/07/04 11:06:52;;;;;;;2.08;1.13;;;;;;;;;;6194428;28;21887;-77
2022/07/04 11:10:23;;;;;;;0.93;0.75;;;;;;;;;;6190844;28;20234;-80
2022/07/04 11:13:44;;;;;;;2.08;0.77;;;;;;;;;;6188034;28;20603;-76
2022/07/04 11:17:05;;;;;;;2.63;0.90;;;;;;;;;;6197212;28;20492;-75
2022/07/04 11:20:26;;;;;;;1.75;0.90;;;;;;;;;;6195003;28;20233;-81
2022/07/04 11:23:54;;;;;;;2.13;0.85;;;;;;;;;;6192325;28;20259;-77
2022/07/04 11:27:16;;;;;;;1.27;0.55;;;;;;;;;;6201367;28;20767;-79
2022/07/04 11:30:37;;;;;;;2.10;0.90;;;;;;;;;;6201485;28;20242;-77
2022/07/04 11:33:57;;;;;;;1.33;0.98;;;;;;;;;;6204594;28;20232;-75
2022/07/04 11:37:18;;;;;;;1.10;0.82;;;;;;;;;;6193210;28;20229;-75
2022/07/04 11:48:04;;;;;;;3.15;1.73;;;;;;;;;;6194225;28;20240;-75
2022/07/04 11:51:25;;;;;;;1.13;0.80;;;;;;;;;;6196610;28;20311;-76
2022/07/04 11:54:47;;;;;;;3.28;1.30;;;;;;;;;;6194417;28;20233;-73
2022/07/04 11:58:07;;;;;;;1.00;0.60;;;;;;;;;;6202490;28;20403;-75
2022/07/04 12:01:29;;;;;;;4.25;1.00;;;;;;;;;;6196350;28;20264;-76
2022/07/04 12:04:50;;;;;;;1.80;0.77;;;;;;;;;;6200801;28;20233;-73
2022/07/04 12:08:11;;;;;;;2.13;0.80;;;;;;;;;;6201124;28;20237;-76
2022/07/04 12:11:46;;;;;;;2.72;1.20;;;;;;;;;;6203140;28;20229;-75
2022/07/04 12:15:08;;;;;;;2.35;0.90;;;;;;;;;;6194848;28;20230;-73
2022/07/04 12:18:31;;;;;;;1.95;1.13;;;;;;;;;;6200914;28;20237;-73
2022/07/04 12:21:52;;;;;;;5.32;0.90;;;;;;;;;;6195732;28;20242;-78
2022/07/04 12:25:21;;;;;;;1.38;0.68;;;;;;;;;;6201385;28;20233;-80
2022/07/04 12:28:42;;;;;;;1.67;0.98;;;;;;;;;;6189825;28;20237;-76
2022/07/04 12:32:02;;;;;;;1.88;0.95;;;;;;;;;;6192750;28;20230;-75
2022/07/04 12:35:38;;;;;;;2.08;1.20;;;;;;;;;;6198936;28;20229;-74
2022/07/04 12:38:58;;;;;;;1.95;0.88;;;;;;;;;;6195576;28;20241;-74
2022/07/04 12:42:19;;;;;;;2.17;1.10;;;;;;;;;;6201549;28;20229;-79
2022/07/04 12:45:44;;;;;;;4.15;1.05;;;;;;;;;;6204423;28;20229;-73
2022/07/04 12:49:05;;;;;;;1.77;1.00;;;;;;;;;;6199999;28;20221;-76
2022/07/04 12:52:28;;;;;;;1.77;1.17;;;;;;;;;;6204683;28;20228;-78
2022/07/04 12:55:50;;;;;;;1.08;0.98;;;;;;;;;;6189702;28;20308;-74
2022/07/04 12:59:11;;;;;;;2.03;0.93;;;;;;;;;;6180009;28;20226;-73
2022/07/04 13:02:32;;;;;;;2.90;1.27;;;;;;;;;;6203232;28;20834;-75
2022/07/04 13:05:52;;;;;;;2.90;0.80;;;;;;;;;;6201184;28;20229;-74
2022/07/04 13:09:14;;;;;;;1.60;1.20;;;;;;;;;;6199889;28;20622;-76
2022/07/04 13:12:35;;;;;;;1.55;0.90;;;;;;;;;;6201139;28;20229;-78
2022/07/04 13:15:55;;;;;;;1.95;0.95;;;;;;;;;;6203217;28;20226;-79
2022/07/04 13:19:17;;;;;;;2.28;1.48;;;;;;;;;;6198784;28;20746;-74
2022/07/04 13:22:38;;;;;;;1.73;1.48;;;;;;;;;;6204368;28;20217;-74
2022/07/04 13:25:59;;;;;;;4.35;1.10;;;;;;;;;;6197100;28;20235;-78
2022/07/04 13:29:22;;;;;;;2.80;1.10;;;;;;;;;;6192882;28;21132;-77
2022/07/04 13:32:42;;;;;;;2.85;1.00;;;;;;;;;;6196675;28;20631;-73
2022/07/04 13:36:03;;;;;;;1.85;0.90;;;;;;;;;;6201086;28;20849;-67
2022/07/04 13:39:24;;;;;;;1.83;1.20;;;;;;;;;;6201228;28;20244;-68
2022/07/04 13:42:58;;;;;;;3.30;1.20;;;;;;;;;;6199673;28;20339;-68
2022/07/04 13:46:19;;;;;;;2.85;1.63;;;;;;;;;;6199409;28;20236;-69
2022/07/04 13:49:40;;;;;;;2.40;1.25;;;;;;;;;;6210050;28;20229;-69
2022/07/04 13:53:00;;;;;;;1.27;1.00;;;;;;;;;;6199206;28;20607;-68
2022/07/04 13:56:21;;;;;;;2.53;1.27;;;;;;;;;;6201220;28;20228;-69
2022/07/04 13:59:43;;;;;;;2.90;1.63;;;;;;;;;;6192113;28;20273;-67
2022/07/04 14:03:04;;;;;;;7.22;1.67;;;;;;;;;;6181847;28;20634;-68
2022/07/04 14:06:24;;;;;;;2.47;1.27;;;;;;;;;;6199491;28;20229;-69
2022/07/04 14:09:45;;;;;;;1.90;1.10;;;;;;;;;;6190493;28;20559;-67
2022/07/04 14:13:06;;;;;;;5.20;1.50;;;;;;;;;;6193911;28;20233;-69
2022/07/04 14:16:27;;;;;;;1.25;0.90;;;;;;;;;;6205641;28;20225;-67
2022/07/04 14:19:48;;;;;;;2.95;1.00;;;;;;;;;;6207886;28;20305;-68
2022/07/04 14:23:09;;;;;;;1.90;1.13;;;;;;;;;;6205410;28;20240;-68
2022/07/04 14:26:29;;;;;;;2.78;1.13;;;;;;;;;;6204827;28;20249;-69
2022/07/04 14:29:50;;;;;;;5.72;1.38;;;;;;;;;;6213723;28;20770;-69
2022/07/04 14:33:12;;;;;;;2.60;1.20;;;;;;;;;;6211285;28;20233;-68
2022/07/04 14:36:33;;;;;;;3.33;1.10;;;;;;;;;;6204527;28;21025;-67
2022/07/04 14:39:54;;;;;;;3.70;1.20;;;;;;;;;;6205269;28;20704;-68
2022/07/04 14:43:14;;;;;;;2.03;0.90;;;;;;;;;;6207466;28;20225;-68
2022/07/04 14:46:35;;;;;;;3.00;1.45;;;;;;;;;;6213453;28;20304;-68
2022/07/04 14:49:57;;;;;;;2.78;0.73;;;;;;;;;;6208253;28;20221;-68
2022/07/04 14:53:19;;;;;;;3.45;1.42;;;;;;;;;;6205884;28;20225;-69
2022/07/04 14:56:40;;;;;;;2.30;1.08;;;;;;;;;;6204979;28;20251;-69
2022/07/04 15:00:00;;;;;;;2.13;1.15;;;;;;;;;;6205945;28;20257;-68
2022/07/04 15:03:21;;;;;;;2.63;0.98;;;;;;;;;;6202372;28;20229;-68
2022/07/04 15:06:44;;;;;;;3.35;1.27;;;;;;;;;;6209803;28;20229;-69
2022/07/04 15:10:07;;;;;;;1.13;1.00;;;;;;;;;;6200664;28;20233;-68
2022/07/04 15:13:28;;;;;;;2.22;1.10;;;;;;;;;;6211574;28;20241;-67
2022/07/04 15:16:49;;;;;;;1.73;1.00;;;;;;;;;;6205430;28;20651;-67
2022/07/04 15:27:27;;;;;;;3.28;1.05;;;;;;;;;;6200341;28;20237;-67
2022/07/04 15:30:48;;;;;;;1.25;0.77;;;;;;;;;;6202607;28;20226;-67
2022/07/04 15:34:09;;;;;;;2.22;1.08;;;;;;;;;;6195198;28;20232;-67
2022/07/04 15:37:29;;;;;;;3.92;1.20;;;;;;;;;;6191202;28;20246;-68
2022/07/04 15:40:52;;;;;;;1.75;1.05;;;;;;;;;;6193200;28;20237;-68
2022/07/04 15:44:12;;;;;;;2.88;0.80;;;;;;;;;;6204055;28;20558;-68
2022/07/04 15:47:33;;;;;;;3.95;1.35;;;;;;;;;;6204744;28;20229;-68
2022/07/04 15:50:54;;;;;;;2.65;0.95;;;;;;;;;;6195148;28;20241;-68
2022/07/04 15:54:14;;;;;;;3.58;1.20;;;;;;;;;;6198665;28;20329;-67
2022/07/04 15:57:36;;;;;;;1.38;1.02;;;;;;;;;;6201234;28;20356;-69
2022/07/04 16:00:57;;;;;;;2.40;1.52;;;;;;;;;;6197698;28;20238;-67
2022/07/04 16:04:17;;;;;;;2.47;0.90;;;;;;;;;;6200616;28;20237;-68
2022/07/04 16:07:38;;;;;;;2.20;1.33;;;;;;;;;;6196775;28;20326;-68
2022/07/04 16:10:58;;;;;;;1.33;0.82;;;;;;;;;;6189144;28;21705;-70
2022/07/04 16:14:21;;;;;;;4.50;1.38;;;;;;;;;;6198463;28;20620;-68
2022/07/04 16:17:41;;;;;;;4.03;1.23;;;;;;;;;;6201254;28;20237;-68
2022/07/04 16:21:02;;;;;;;1.98;1.08;;;;;;;;;;6196166;28;20240;-68
2022/07/04 16:24:23;;;;;;;3.25;1.60;;;;;;;;;;6188642;28;20221;-69
2022/07/04 16:27:43;;;;;;;1.73;1.10;;;;;;;;;;6198223;28;20314;-66
2022/07/04 16:31:05;;;;;;;2.88;1.58;;;;;;;;;;6201232;28;20327;-68
2022/07/04 16:34:26;;;;;;;3.03;1.00;;;;;;;;;;6202283;28;21257;-68
2022/07/04 16:37:46;;;;;;;1.48;1.10;;;;;;;;;;6198323;28;20256;-68
2022/07/04 16:41:07;;;;;;;6.20;2.33;;;;;;;;;;6204039;28;20237;-67
2022/07/04 16:44:27;;;;;;;2.80;1.45;;;;;;;;;;6201360;28;20353;-68
2022/07/04 16:47:49;;;;;;;3.95;1.95;;;;;;;;;;6194857;28;20233;-68
2022/07/04 16:51:10;;;;;;;3.83;1.67;;;;;;;;;;6197028;28;20320;-68
2022/07/04 16:54:30;;;;;;;5.00;1.73;;;;;;;;;;6188657;28;20588;-68
2022/07/04 16:57:51;;;;;;;2.47;1.60;;;;;;;;;;6193421;28;20217;-69
2022/07/04 17:01:12;;;;;;;3.95;1.85;;;;;;;;;;6191220;28;20247;-68
2022/07/04 17:04:34;;;;;;;3.63;2.10;;;;;;;;;;6200679;28;21364;-68
2022/07/04 17:07:54;;;;;;;5.10;2.17;;;;;;;;;;6195535;28;20225;-68
2022/07/04 17:11:15;;;;;;;5.53;1.67;;;;;;;;;;6191550;28;20321;-69
2022/07/04 17:14:36;;;;;;;2.97;1.52;;;;;;;;;;6195343;28;20236;-68
2022/07/04 17:17:56;;;;;;;6.07;2.10;;;;;;;;;;6196622;28;20254;-68
2022/07/04 17:21:18;;;;;;;6.45;2.33;;;;;;;;;;6183719;28;20229;-68
2022/07/04 17:24:39;;;;;;;7.90;1.95;;;;;;;;;;6180310;28;20237;-67
2022/07/04 17:28:00;;;;;;;3.17;1.70;;;;;;;;;;6188055;28;20230;-68
2022/07/04 17:31:21;;;;;;;4.32;1.67;;;;;;;;;;6197170;28;20224;-68
2022/07/04 17:34:41;;;;;;;2.45;1.33;;;;;;;;;;6172246;28;20260;-68
2022/07/04 17:38:03;;;;;;;13.05;3.17;;;;;;;;;;6181348;28;20319;-69
2022/07/04 17:45:03;;;;;;;3.65;1.50;;;;;;;;;;6188646;28;20233;-68
2022/07/04 17:48:24;;;;;;;4.70;2.88;;;;;;;;;;6175190;28;20233;-69
2022/07/04 17:51:45;;;;;;;4.10;1.63;;;;;;;;;;6179163;28;20225;-68
2022/07/04 17:55:09;;;;;;;2.97;1.38;;;;;;;;;;6193418;28;20228;-68
2022/07/04 17:58:30;;;;;;;3.55;1.77;;;;;;;;;;6196955;28;20642;-68
2022/07/04 18:01:50;;;;;;;4.38;1.80;;;;;;;;;;6195399;28;20259;-70
2022/07/04 18:05:11;;;;;;;2.25;1.35;;;;;;;;;;6193838;28;20256;-68
2022/07/04 18:08:32;;;;;;;3.15;1.50;;;;;;;;;;6197839;28;20264;-68
2022/07/04 18:11:55;;;;;;;5.25;1.92;;;;;;;;;;6201215;28;20248;-69
2022/07/04 18:15:16;;;;;;;2.22;1.40;;;;;;;;;;6202225;28;20233;-67
2022/07/04 18:18:37;;;;;;;1.88;1.35;;;;;;;;;;6194414;28;20237;-69
2022/07/04 18:21:58;;;;;;;2.47;1.65;;;;;;;;;;6194273;28;20233;-69
2022/07/04 18:25:19;;;;;;;2.75;1.40;;;;;;;;;;6203526;28;20229;-70
2022/07/04 18:28:41;;;;;;;5.03;2.33;;;;;;;;;;6184355;28;21125;-68
2022/07/04 18:32:02;;;;;;;2.60;1.13;;;;;;;;;;6189990;28;20241;-69
2022/07/04 18:35:22;;;;;;;3.58;2.20;;;;;;;;;;6180582;28;20328;-68
2022/07/04 18:38:43;;;;;;;2.97;1.17;;;;;;;;;;6161031;28;20320;-69
2022/07/04 18:45:43;;;;;;;2.80;1.38;;;;;;;;;;6170538;28;20229;-68
2022/07/04 18:49:04;;;;;;;2.42;1.50;;;;;;;;;;6175313;28;20221;-68
2022/07/04 18:52:24;;;;;;;3.53;1.02;;;;;;;;;;6152524;28;20222;-68
2022/07/04 18:55:46;;;;;;;3.33;1.33;;;;;;;;;;6163194;28;20226;-69
2022/07/04 18:59:06;;;;;;;2.05;1.02;;;;;;;;;;6165198;28;20225;-68
2022/07/04 19:02:29;;;;;;;3.97;1.42;;;;;;;;;;6149390;28;20237;-67
2022/07/04 19:05:50;;;;;;;2.95;1.95;;;;;;;;;;6169306;28;20525;-67
2022/07/04 19:09:10;;;;;;;2.40;1.23;;;;;;;;;;6177146;28;20229;-68
2022/07/04 19:12:31;;;;;;;2.45;1.23;;;;;;;;;;6181037;28;20237;-68
2022/07/04 19:15:52;;;;;;;3.28;1.75;;;;;;;;;;6174300;28;20320;-68
2022/07/04 19:19:14;;;;;;;3.85;2.70;;;;;;;;;;6182107;28;20228;-68
2022/07/04 19:22:35;;;;;;;3.72;2.22;;;;;;;;;;6201324;28;20795;-69
2022/07/04 19:25:55;;;;;;;2.63;1.67;;;;;;;;;;6200045;28;20236;-68
2022/07/04 19:29:16;;;;;;;2.42;1.20;;;;;;;;;;6205210;28;20229;-68
2022/07/04 19:32:37;;;;;;;2.42;1.35;;;;;;;;;;6207621;28;20342;-67
2022/07/04 19:35:59;;;;;;;2.67;1.58;;;;;;;;;;6191500;28;20563;-69
2022/07/04 19:39:20;;;;;;;2.92;1.60;;;;;;;;;;6190038;28;20248;-68
2022/07/04 19:42:40;;;;;;;3.90;1.88;;;;;;;;;;6199153;28;20245;-69
2022/07/04 19:46:01;;;;;;;4.05;1.92;;;;;;;;;;6191705;28;20228;-67
2022/07/04 19:49:24;;;;;;;3.83;1.63;;;;;;;;;;6175874;28;21359;-67
2022/07/04 19:52:46;;;;;;;2.30;1.17;;;;;;;;;;6195446;28;20679;-70
2022/07/04 19:56:07;;;;;;;1.88;1.33;;;;;;;;;;6185613;28;20237;-68
2022/07/04 19:59:27;;;;;;;2.50;1.92;;;;;;;;;;6189491;28;20614;-68
2022/07/04 20:02:48;;;;;;;3.72;1.65;;;;;;;;;;6201134;28;20253;-68
2022/07/04 20:06:09;;;;;;;1.90;1.27;;;;;;;;;;6199630;28;20229;-68
2022/07/04 20:09:31;;;;;;;3.03;1.80;;;;;;;;;;6208043;28;20506;-68
2022/07/04 20:12:51;;;;;;;2.75;2.00;;;;;;;;;;6207398;28;20217;-69
2022/07/04 20:16:12;;;;;;;1.92;1.73;;;;;;;;;;6201381;28;20230;-68
2022/07/04 20:19:33;;;;;;;3.22;1.73;;;;;;;;;;6206322;28;20232;-67
2022/07/04 20:22:53;;;;;;;2.65;1.40;;;;;;;;;;6204195;28;20237;-68
2022/07/04 20:26:15;;;;;;;1.90;1.10;;;;;;;;;;6207169;28;20225;-67
2022/07/04 20:29:36;;;;;;;2.45;1.20;;;;;;;;;;6207115;28;20544;-68
2022/07/04 20:32:57;;;;;;;4.85;1.65;;;;;;;;;;6195960;28;20265;-69
2022/07/04 20:36:17;;;;;;;1.90;1.40;;;;;;;;;;6198001;28;20671;-68
2022/07/04 20:39:39;;;;;;;3.08;1.45;;;;;;;;;;6199759;28;20225;-69
2022/07/04 20:43:01;;;;;;;2.63;1.33;;;;;;;;;;6191053;28;22925;-70